NCAR-RAP Real-Time Weather Data

Output produced by METARs form (12 August 2020  17:41 UTC)
found at http://weather.rap.ucar.edu/surface/
 
KCON 121651Z AUTO 29008KT 10SM FEW050 32/17 A3001 RMK AO2 SLP159 T03170172 $
KCON 121551Z AUTO 31008KT 10SM FEW047 31/18 A3001 RMK AO2 SLP160 T03110178 $
KCON 121451Z AUTO 31008KT 10SM CLR 29/17 A3001 RMK AO2 SLP159 T02940172 51004 $
KCON 121351Z AUTO 29008KT 10SM CLR 28/18 A3001 RMK AO2 SLP160 T02830183 TSNO $
KCON 121251Z AUTO 32009KT 10SM CLR 26/19 A3000 RMK AO2 SLP157 T02610189 TSNO $
KCON 121151Z AUTO 29004KT 10SM CLR 24/19 A3000 RMK AO2 SLP155 60000 T02440194 10250 20228 53015 TSNO $
KCON 121051Z AUTO 25006KT 10SM CLR 23/20 A2998 RMK AO2 SLP150 T02330200 TSNO $
KCON 120951Z AUTO 26005KT 10SM CLR 23/20 A2997 RMK AO2 SLP145 T02280200 TSNO $
KCON 120851Z AUTO 23003KT 10SM CLR 23/21 A2995 RMK AO2 SLP140 60000 T02330206 53012 $
KCON 120751Z AUTO 22004KT 10SM CLR 24/21 A2993 RMK AO2 SLP134 T02390206 $
KCON 120651Z AUTO 14003KT 10SM SCT120 24/21 A2992 RMK AO2 RAB05E23 SLP131 P0000 T02390206 $
KCON 120551Z AUTO 00000KT 10SM CLR 25/20 A2992 RMK AO2 SLP128 T02500200 10300 20250 58000 $
KCON 120451Z AUTO 20007KT 10SM CLR 26/20 A2992 RMK AO2 SLP130 T02560200 403560189 $
KCON 120351Z AUTO 18007KT 10SM CLR 26/19 A2992 RMK AO2 SLP129 T02610189
KCON 120251Z AUTO 20006KT 10SM CLR 27/19 A2992 RMK AO2 SLP128 T02670189 51016
KCON 120151Z AUTO 19010KT 10SM CLR 28/20 A2991 RMK AO2 SLP125 T02780200
KCON 120051Z AUTO 19010KT 10SM CLR 29/20 A2989 RMK AO2 SLP118 T02940200
KCON 112351Z AUTO 20007KT 10SM CLR 30/19 A2987 RMK AO2 SLP112 T03000194 10356 20300 53001
KCON 112251Z AUTO 21006KT 10SM CLR 32/19 A2987 RMK AO2 SLP111 T03220189
KCON 112151Z AUTO 24011KT 10SM FEW060 34/18 A2987 RMK AO2 SLP111 T03390183
KCON 112051Z AUTO 22012G18KT 10SM CLR 34/18 A2987 RMK AO2 SLP111 T03440183 56015
KCON 111951Z AUTO 18009KT 140V210 10SM FEW065 35/18 A2987 RMK AO2 SLP112 T03500183